»·PEaware :: SWA379 KLAS-KPHX

SWA379 :: KLAS-KPHX

FLIGHT INFORMATION

Flight Status: Arrived
Operator:
Southwest Airlines
More flights by this operator :: More flights under this callsign
Pilot: Cody B. (17747)
Aircraft: BOEING 737-800
(B738)
More flights by this aircraft type
Origin: KLAS McCarran Intl
United States
Destination: KPHX Phoenix Sky Harbor Intl
United States
More flights between these airports :: More routes between these airports
Route: +COWBY8 COWBY TENTS BRUSR1
File this flight plan on PilotEdge
Remarks:
Altitude:
(Current/Filed)
33,000ft
Speed:
(Current/Filed)
460kts
Departed: 31-Jul-18 03:07 PM
Arrived: 31-Jul-18 03:59 PM
Distance/Time
Traveled:
222nm/0:52
Distance/Time
To Go:
Arrived

Flight Plot

Page will automatically refresh every two minutes.

Flight plan parsing failed; only flown route is shown


Map Options




Map Legend


Flown Route
Filed Route
Departure Airport
Arrival Airport
Navaid (VOR, NDB)
Fix

Horizontal Profiles

Position Reports

Time Latitude Longitude Heading Altitude Ground
Speed
31-Jul-18 14:02 36.079934 -115.147125 61 2189ft 0kts
31-Jul-18 14:03 36.079934 -115.147125 61 2189ft 0kts
31-Jul-18 14:04 36.079934 -115.147125 61 2189ft 0kts
31-Jul-18 14:05 36.079934 -115.147125 61 2189ft 0kts
31-Jul-18 14:06 36.079934 -115.147125 61 2189ft 0kts
31-Jul-18 14:07 36.079934 -115.147125 61 2189ft 0kts
31-Jul-18 14:08 36.079934 -115.147125 61 2189ft 0kts
31-Jul-18 14:09 36.079934 -115.147125 61 2189ft 0kts
31-Jul-18 14:10 36.079934 -115.147125 61 2189ft 0kts
31-Jul-18 14:11 36.079934 -115.147125 61 2189ft 0kts
31-Jul-18 14:12 36.079934 -115.147125 61 2189ft 0kts
31-Jul-18 14:13 36.079934 -115.147125 61 2189ft 0kts
31-Jul-18 14:14 36.079934 -115.147125 61 2189ft 0kts
31-Jul-18 14:15 36.079934 -115.147125 61 2189ft 0kts
31-Jul-18 14:16 36.079934 -115.147125 61 2189ft 0kts
31-Jul-18 14:17 36.079934 -115.147125 61 2189ft 0kts
31-Jul-18 14:18 36.079934 -115.147125 61 2189ft 0kts
31-Jul-18 14:19 36.079934 -115.147125 61 2189ft 0kts
31-Jul-18 14:20 36.079934 -115.147125 61 2189ft 0kts
31-Jul-18 14:21 36.079934 -115.147125 61 2189ft 0kts
31-Jul-18 14:22 36.079934 -115.147125 61 2189ft 0kts
31-Jul-18 14:23 36.079934 -115.147125 61 2189ft 0kts
31-Jul-18 14:24 36.079934 -115.147125 61 2189ft 0kts
31-Jul-18 14:25 36.079934 -115.147125 61 2189ft 0kts
31-Jul-18 14:26 36.079934 -115.147125 61 2189ft 0kts
31-Jul-18 14:27 36.079934 -115.147125 61 2189ft 0kts
31-Jul-18 14:28 36.079934 -115.147125 61 2189ft 0kts
31-Jul-18 14:29 36.079934 -115.147125 61 2189ft 0kts
31-Jul-18 14:30 36.079934 -115.147125 61 2189ft 0kts
31-Jul-18 14:31 36.079934 -115.147125 61 2189ft 0kts
31-Jul-18 14:32 36.079934 -115.147125 61 2189ft 0kts
31-Jul-18 14:33 36.079934 -115.147125 61 2189ft 0kts
31-Jul-18 14:34 36.079934 -115.147125 61 2189ft 0kts
31-Jul-18 14:35 36.079934 -115.147125 61 2189ft 0kts
31-Jul-18 14:36 36.079934 -115.147125 61 2189ft 0kts
31-Jul-18 14:37 36.079934 -115.147125 61 2189ft 0kts
31-Jul-18 14:38 36.079934 -115.147125 61 2189ft 0kts
31-Jul-18 14:39 36.079934 -115.147125 61 2189ft 0kts
31-Jul-18 14:40 36.079934 -115.147125 61 2189ft 0kts
31-Jul-18 14:41 36.079934 -115.147125 61 2189ft 0kts
31-Jul-18 14:42 36.079934 -115.147125 61 2189ft 0kts
31-Jul-18 14:43 36.079934 -115.147125 61 2189ft 0kts
31-Jul-18 14:44 36.079934 -115.147125 61 2189ft 0kts
31-Jul-18 14:45 36.079934 -115.147125 61 2189ft 0kts
31-Jul-18 14:46 36.079934 -115.147125 61 2189ft 0kts
31-Jul-18 14:47 36.079934 -115.147125 61 2189ft 0kts
31-Jul-18 14:48 36.079934 -115.147125 61 2189ft 0kts
31-Jul-18 14:49 36.079934 -115.147125 61 2189ft 0kts
31-Jul-18 14:50 36.079934 -115.147125 61 2189ft 0kts
31-Jul-18 14:51 36.079934 -115.147125 61 2189ft 0kts
31-Jul-18 14:52 36.079934 -115.147125 61 2189ft 0kts
31-Jul-18 14:53 36.079934 -115.147125 61 2189ft 0kts
31-Jul-18 14:54 36.079934 -115.147125 61 2189ft 0kts
31-Jul-18 14:55 36.079906 -115.147752 126 2189ft 2kts
31-Jul-18 14:56 36.080098 -115.147924 156 2189ft 0kts
31-Jul-18 14:57 36.080098 -115.147924 156 2189ft 0kts
31-Jul-18 14:58 36.080098 -115.147924 156 2189ft 0kts
31-Jul-18 14:59 36.079643 -115.147683 157 2189ft 6kts
31-Jul-18 15:00 36.079133 -115.147435 157 2189ft 0kts
31-Jul-18 15:01 36.078345 -115.147244 187 2189ft 8kts
31-Jul-18 15:02 36.077960 -115.150226 274 2189ft 12kts
31-Jul-18 15:03 36.078016 -115.155733 269 2189ft 18kts
31-Jul-18 15:04 36.077959 -115.160976 245 2189ft 8kts
31-Jul-18 15:05 36.077456 -115.161263 180 2189ft 0kts
31-Jul-18 15:06 36.077456 -115.161263 180 2189ft 0kts
31-Jul-18 15:07 36.076686 -115.161269 179 2189ft 5kts
31-Jul-18 15:08 36.076397 -115.158360 90 2189ft 49kts
31-Jul-18 15:09 36.076297 -115.109899 91 2614ft 196kts
31-Jul-18 15:10 36.077164 -115.038798 89 4164ft 252kts
31-Jul-18 15:11 36.077729 -114.948034 94 6617ft 279kts
31-Jul-18 15:12 36.064467 -114.852895 103 9004ft 289kts
31-Jul-18 15:13 36.049184 -114.755937 101 11568ft 296kts
31-Jul-18 15:14 36.034024 -114.652051 100 13361ft 329kts
31-Jul-18 15:15 36.017614 -114.539338 100 15902ft 339kts
31-Jul-18 15:16 36.000823 -114.423919 101 18285ft 348kts
31-Jul-18 15:17 35.983475 -114.305973 101 20314ft 361kts
31-Jul-18 15:18 35.965233 -114.182398 101 22196ft 373kts
31-Jul-18 15:19 35.946488 -114.054839 101 23899ft 386kts
31-Jul-18 15:20 35.927618 -113.926016 101 25370ft 399kts
31-Jul-18 15:21 35.894461 -113.795814 112 26656ft 412kts
31-Jul-18 15:22 35.854545 -113.662362 110 27826ft 428kts
31-Jul-18 15:23 35.813460 -113.523172 110 29051ft 439kts
31-Jul-18 15:24 35.771442 -113.381187 109 30473ft 442kts
31-Jul-18 15:25 35.730071 -113.241556 109 32106ft 434kts
31-Jul-18 15:26 35.688364 -113.101487 109 33141ft 438kts
31-Jul-18 15:27 35.645421 -112.957853 109 33356ft 460kts
31-Jul-18 15:28 35.600135 -112.806885 109 33165ft 482kts
31-Jul-18 15:29 35.553812 -112.654017 109 32173ft 476kts
31-Jul-18 15:30 35.506295 -112.505420 123 30275ft 464kts
31-Jul-18 15:31 35.401576 -112.432352 171 29409ft 445kts
31-Jul-18 15:32 35.279458 -112.408938 172 29347ft 445kts
31-Jul-18 15:33 35.158293 -112.385049 170 29061ft 451kts
31-Jul-18 15:34 35.038468 -112.359213 169 27269ft 423kts
31-Jul-18 15:35 34.924750 -112.334682 169 25700ft 418kts
31-Jul-18 15:36 34.816231 -112.310585 169 24199ft 402kts
31-Jul-18 15:37 34.708894 -112.287282 168 22764ft 388kts
31-Jul-18 15:38 34.604066 -112.264342 168 22006ft 384kts
31-Jul-18 15:39 34.500442 -112.241727 168 21715ft 377kts
31-Jul-18 15:40 34.401706 -112.218770 166 18701ft 357kts
31-Jul-18 15:41 34.306184 -112.194004 166 16900ft 347kts
31-Jul-18 15:42 34.212915 -112.169977 166 15099ft 342kts
31-Jul-18 15:43 34.121233 -112.146307 166 13321ft 335kts
31-Jul-18 15:44 34.032248 -112.116677 159 13028ft 332kts
31-Jul-18 15:45 33.944782 -112.080527 159 13028ft 333kts
31-Jul-18 15:46 33.863042 -112.047037 160 12250ft 312kts
31-Jul-18 15:47 33.786163 -112.015771 159 11361ft 290kts
31-Jul-18 15:48 33.709881 -111.984822 159 8974ft 278kts
31-Jul-18 15:49 33.638294 -111.955750 159 8563ft 275kts
31-Jul-18 15:50 33.568997 -111.927820 159 7417ft 243kts
31-Jul-18 15:51 33.526984 -111.876892 96 7069ft 231kts
31-Jul-18 15:52 33.526587 -111.800531 88 6169ft 235kts
31-Jul-18 15:53 33.511785 -111.728652 159 5077ft 243kts
31-Jul-18 15:54 33.461087 -111.727024 197 5020ft 208kts
31-Jul-18 15:55 33.432204 -111.793932 258 4129ft 196kts
31-Jul-18 15:56 33.430276 -111.856456 270 3761ft 190kts
31-Jul-18 15:57 33.428693 -111.916983 268 3100ft 180kts
31-Jul-18 15:58 33.428756 -111.970172 266 1712ft 152kts
31-Jul-18 15:59 33.428850 -112.016831 269 1142ft 61kts
31-Jul-18 16:00 33.429888 -112.021517 66 1142ft 0kts
31-Jul-18 16:01 33.429893 -112.021500 69 1142ft 0kts
31-Jul-18 16:02 33.429970 -112.017432 90 1142ft 11kts
31-Jul-18 16:03 33.431551 -112.015707 1 1142ft 10kts
31-Jul-18 16:04 33.432511 -112.015111 18 1142ft 10kts
31-Jul-18 16:05 33.432895 -112.009767 90 1142ft 18kts

Navigation Log

Ident Type
Flight plan parsing failed, navigation log unavailable